Terminal Aerodrome Forecast
Issued by NWS Caribou, ME

Home | Current Version | Previous Version | Text Only | Print | Product List | Glossary On
Versions: 1 2 3 4 5 6 7 8 9 10 11 12 13 14 15 16 17 18 19 20 21 22 23 24 25 26 27 28 29 30 31 32 33 34
868
FTUS41 KCAR 231616 AAB
TAFCAR
TAF AMD
KCAR 231616Z 2316/2412 25007KT 5SM -SHRA SCT015 OVC025
      TEMPO 2317/2319 2SM RA OVC015
     FM240100 36003KT P6SM VCSH OVC050
     FM240900 05007KT 3SM -SHRA OVC015=

USA.gov is the U.S. government's official web portal to all federal, state and local government web resources and services.